Philipsburg, MT

6:32 PM MDT on August 28, 2014 (GMT -0600)
MesoWest WARM SPRINGS MT US SNOTEL | Change Station
CLOSE
Current Station
Personal Weather Station
Location: Philipsburg, MT
Elevation: 7799 ft
Nearby Weather Stations

Elev 7799 ft 46.27 °N, 113.16 °W | Updated 43 days ago

Partly Cloudy
Partly Cloudy
79 °F
Feels Like 79 °F
N
15
Wind Variable Wind from WNW
Gusts 23 mph

Today
High -- | Low -- °F
--% Chance of Precip.
Yesterday
High -- | Low -- °F
Precip. -- in
6:48 AM 8:18 PM
Waxing Crescent, 11% visible
Pressure 29.92 in
Visibility 10.0 miles
Clouds Mostly Cloudy 10000 ft
Mostly Cloudy 12000 ft
Dew Point 49 °F
Humidity 33%
Rainfall 0.00 in
Snow Depth 0 in , 0 in
UV 1 out of 12
Pollen 8.00 out of 12
Air Quality Not available.
Flu Activity Not available.
METAR KBTM 282353Z AUTO 31009KT 10SM BKN100 BKN120 26/04 A3006 RMK AO2 SLP132 T02610039 10272 20233 56006

More Conditions Fewer Conditions

Pressure 29.92 in
Visibility 10.0 miles
Clouds Mostly Cloudy 10000 ft
Mostly Cloudy 12000 ft
Dew Point 49 °F
Humidity 33%
Rainfall 0.00 in
Snow Depth 0 in , 0 in
UV 1 out of 12
Pollen 8.00 out of 12
Air Quality Not available.
Flu Activity Not available.
METAR KBTM 282353Z AUTO 31009KT 10SM BKN100 BKN120 26/04 A3006 RMK AO2 SLP132 T02610039 10272 20233 56006

More Conditions Fewer Conditions

10-Day Weather Forecast

Almanac

Astronomy

Aug. 28, 2014 Rise Set
Actual Time 6:48 AM MDT 8:18 PM MDT
Civil Twilight 6:16 AM MDT 8:49 PM MDT
Nautical Twilight 5:38 AM MDT 9:27 PM MDT
Astronomical Twilight 4:57 AM MDT 10:08 PM MDT
Moon 9:56 AM MDT (8/28) 9:31 PM MDT (8/28)
Length of Visible Light 14h 33m
Length of Day
13h 30m
Tomorrow will be 3m 8s shorter.
Waxing Crescent, 11% of the Moon is Illuminated
Today
Waxing Crescent
Sep 2
First Quarter
Sep 8
Full
Sep 15
Last Quarter
Sep 24
New

Today's Extremes

State Highs State Lows

Community

WunderPhotos

Upload Photos

1,748,105 photos uploaded!

Nearby

Snow Depth

Station Depth Elevation
Black Pine 0 in 7210 ft
Combination 0 in 5600 ft
Rocker Peak 0 in 8000 ft
Basin Creek 0 in 7180 ft
Nevada Ridge 0 in 7020 ft

Earthquake Activity

City Distance Mag. Time & Date
No recent earthquake activity has been reported nearby.
Minimum magnitude displayed is 2.5.

Coastal Water Temperatures

Place Temperature
No Stations Reporting

Nearby Weather Stations